sensor_id;sensor_type;location;lat;lon;timestamp;pressure;altitude;pressure_sealevel;temperature;humidity
74524;BME280;63074;44.696;10.358;2023-06-22T00:00:10;100286.13;;;31.34;69.44
74524;BME280;63074;44.696;10.358;2023-06-22T00:02:37;100301.25;;;31.37;68.94
74524;BME280;63074;44.696;10.358;2023-06-22T00:05:04;100288.75;;;31.46;68.30
74524;BME280;63074;44.696;10.358;2023-06-22T00:07:34;100285.59;;;31.71;67.57
74524;BME280;63074;44.696;10.358;2023-06-22T00:10:00;100300.66;;;31.70;66.99
74524;BME280;63074;44.696;10.358;2023-06-22T00:12:26;100324.78;;;31.04;69.40
74524;BME280;63074;44.696;10.358;2023-06-22T00:14:53;100304.81;;;31.14;69.68
74524;BME280;63074;44.696;10.358;2023-06-22T00:17:22;100293.34;;;31.16;69.56
74524;BME280;63074;44.696;10.358;2023-06-22T00:19:48;100288.44;;;31.09;69.59
74524;BME280;63074;44.696;10.358;2023-06-22T00:24:45;100278.16;;;31.33;68.37
74524;BME280;63074;44.696;10.358;2023-06-22T00:27:11;100253.44;;;31.96;66.73
74524;BME280;63074;44.696;10.358;2023-06-22T00:29:37;100262.34;;;32.09;66.01
74524;BME280;63074;44.696;10.358;2023-06-22T00:32:03;100251.19;;;32.65;64.13
74524;BME280;63074;44.696;10.358;2023-06-22T00:34:30;100273.91;;;32.11;65.71
74524;BME280;63074;44.696;10.358;2023-06-22T00:36:56;100278.56;;;32.03;65.99
74524;BME280;63074;44.696;10.358;2023-06-22T00:39:22;100293.78;;;31.64;67.30
74524;BME280;63074;44.696;10.358;2023-06-22T00:41:48;100295.25;;;31.80;67.33
74524;BME280;63074;44.696;10.358;2023-06-22T00:44:15;100297.38;;;31.64;67.88
74524;BME280;63074;44.696;10.358;2023-06-22T00:46:41;100323.94;;;29.95;73.63
74524;BME280;63074;44.696;10.358;2023-06-22T00:49:07;100275.63;;;29.61;76.29
74524;BME280;63074;44.696;10.358;2023-06-22T00:51:33;100221.69;;;30.06;75.70
74524;BME280;63074;44.696;10.358;2023-06-22T00:54:01;100218.97;;;30.83;73.08
74524;BME280;63074;44.696;10.358;2023-06-22T00:56:27;100239.28;;;31.10;71.85
74524;BME280;63074;44.696;10.358;2023-06-22T00:58:55;100257.31;;;30.58;73.37
74524;BME280;63074;44.696;10.358;2023-06-22T01:01:23;100242.06;;;30.90;73.06
74524;BME280;63074;44.696;10.358;2023-06-22T01:03:50;100241.16;;;31.25;70.43
74524;BME280;63074;44.696;10.358;2023-06-22T01:08:51;100259.44;;;31.07;71.50
74524;BME280;63074;44.696;10.358;2023-06-22T01:14:18;100276.09;;;31.07;70.82
74524;BME280;63074;44.696;10.358;2023-06-22T01:16:45;100255.50;;;31.76;68.74
74524;BME280;63074;44.696;10.358;2023-06-22T01:21:46;100260.38;;;31.83;67.41
74524;BME280;63074;44.696;10.358;2023-06-22T01:24:22;100276.47;;;31.70;67.98
74524;BME280;63074;44.696;10.358;2023-06-22T01:29:50;100269.28;;;32.48;65.82
74524;BME280;63074;44.696;10.358;2023-06-22T01:32:18;100290.94;;;32.09;66.57
74524;BME280;63074;44.696;10.358;2023-06-22T01:34:46;100283.16;;;32.18;66.41
74524;BME280;63074;44.696;10.358;2023-06-22T01:39:45;100302.25;;;32.20;66.77
74524;BME280;63074;44.696;10.358;2023-06-22T01:42:12;100333.47;;;31.64;67.91
74524;BME280;63074;44.696;10.358;2023-06-22T01:44:39;100356.00;;;31.17;69.87
74524;BME280;63074;44.696;10.358;2023-06-22T01:47:17;100334.75;;;31.67;69.04
74524;BME280;63074;44.696;10.358;2023-06-22T01:49:49;100315.06;;;31.75;68.25
74524;BME280;63074;44.696;10.358;2023-06-22T01:52:33;100321.66;;;31.48;69.13
74524;BME280;63074;44.696;10.358;2023-06-22T01:55:01;100321.72;;;31.29;69.60
74524;BME280;63074;44.696;10.358;2023-06-22T01:57:30;100302.44;;;31.81;68.97
74524;BME280;63074;44.696;10.358;2023-06-22T02:00:03;100301.56;;;32.00;68.07
74524;BME280;63074;44.696;10.358;2023-06-22T02:02:40;100295.75;;;32.12;67.50
74524;BME280;63074;44.696;10.358;2023-06-22T02:05:11;100311.19;;;31.83;67.92
74524;BME280;63074;44.696;10.358;2023-06-22T02:10:43;100308.59;;;31.48;69.03
74524;BME280;63074;44.696;10.358;2023-06-22T02:13:32;100319.56;;;30.80;71.29
74524;BME280;63074;44.696;10.358;2023-06-22T02:16:02;100315.09;;;30.40;73.08
74524;BME280;63074;44.696;10.358;2023-06-22T02:18:31;100298.31;;;30.87;71.59
74524;BME280;63074;44.696;10.358;2023-06-22T02:20:57;100284.91;;;31.32;70.27
74524;BME280;63074;44.696;10.358;2023-06-22T02:23:25;100299.75;;;31.20;71.01
74524;BME280;63074;44.696;10.358;2023-06-22T02:25:52;100295.75;;;31.63;68.77
74524;BME280;63074;44.696;10.358;2023-06-22T02:28:18;100314.94;;;31.49;70.67
74524;BME280;63074;44.696;10.358;2023-06-22T02:30:44;100342.38;;;30.38;74.80
74524;BME280;63074;44.696;10.358;2023-06-22T02:33:10;100278.00;;;29.78;79.04
74524;BME280;63074;44.696;10.358;2023-06-22T02:35:37;100269.22;;;29.29;81.56
74524;BME280;63074;44.696;10.358;2023-06-22T02:38:04;100213.09;;;29.60;83.12
74524;BME280;63074;44.696;10.358;2023-06-22T02:40:31;100265.63;;;30.42;77.55
74524;BME280;63074;44.696;10.358;2023-06-22T02:42:58;100231.75;;;28.88;85.70
74524;BME280;63074;44.696;10.358;2023-06-22T02:45:27;100222.25;;;30.50;79.25
74524;BME280;63074;44.696;10.358;2023-06-22T02:47:54;100246.19;;;29.09;84.88
74524;BME280;63074;44.696;10.358;2023-06-22T02:52:47;100240.78;;;30.84;78.21
74524;BME280;63074;44.696;10.358;2023-06-22T02:55:13;100268.09;;;31.25;74.27
74524;BME280;63074;44.696;10.358;2023-06-22T02:57:39;100288.97;;;30.57;77.23
74524;BME280;63074;44.696;10.358;2023-06-22T03:00:10;100285.97;;;30.85;75.16
74524;BME280;63074;44.696;10.358;2023-06-22T03:02:46;100282.19;;;31.58;72.84
74524;BME280;63074;44.696;10.358;2023-06-22T03:05:13;100294.97;;;31.40;72.69
74524;BME280;63074;44.696;10.358;2023-06-22T03:07:40;100303.28;;;31.17;74.39
74524;BME280;63074;44.696;10.358;2023-06-22T03:10:09;100296.22;;;31.23;73.63
74524;BME280;63074;44.696;10.358;2023-06-22T03:12:39;100307.78;;;31.25;73.21
74524;BME280;63074;44.696;10.358;2023-06-22T03:15:07;100304.53;;;31.42;72.59
74524;BME280;63074;44.696;10.358;2023-06-22T03:17:34;100306.59;;;31.49;71.89
74524;BME280;63074;44.696;10.358;2023-06-22T03:20:02;100321.72;;;31.09;72.85
74524;BME280;63074;44.696;10.358;2023-06-22T03:22:35;100308.72;;;31.33;71.81
74524;BME280;63074;44.696;10.358;2023-06-22T03:25:01;100309.66;;;31.40;71.32
74524;BME280;63074;44.696;10.358;2023-06-22T03:27:28;100318.34;;;31.39;71.72
74524;BME280;63074;44.696;10.358;2023-06-22T03:29:54;100312.34;;;31.60;70.49
74524;BME280;63074;44.696;10.358;2023-06-22T03:34:46;100334.97;;;31.16;72.84
74524;BME280;63074;44.696;10.358;2023-06-22T03:37:14;100340.94;;;30.99;72.76
74524;BME280;63074;44.696;10.358;2023-06-22T03:39:41;100327.56;;;31.66;71.35
74524;BME280;63074;44.696;10.358;2023-06-22T03:42:07;100327.22;;;31.67;70.85
74524;BME280;63074;44.696;10.358;2023-06-22T03:44:35;100342.28;;;30.00;78.78
74524;BME280;63074;44.696;10.358;2023-06-22T03:47:03;100289.50;;;31.24;74.43
74524;BME280;63074;44.696;10.358;2023-06-22T03:49:30;100309.19;;;30.07;77.92
74524;BME280;63074;44.696;10.358;2023-06-22T03:51:56;100282.19;;;30.74;77.19
74524;BME280;63074;44.696;10.358;2023-06-22T03:54:22;100275.69;;;29.49;82.15
74524;BME280;63074;44.696;10.358;2023-06-22T03:56:48;100251.66;;;29.53;83.54
74524;BME280;63074;44.696;10.358;2023-06-22T03:59:14;100262.31;;;30.17;80.40
74524;BME280;63074;44.696;10.358;2023-06-22T04:01:41;100265.19;;;30.21;80.73
74524;BME280;63074;44.696;10.358;2023-06-22T04:04:07;100274.97;;;30.34;80.32
74524;BME280;63074;44.696;10.358;2023-06-22T04:06:33;100287.50;;;30.63;78.22
74524;BME280;63074;44.696;10.358;2023-06-22T04:09:00;100300.66;;;30.85;76.88
74524;BME280;63074;44.696;10.358;2023-06-22T04:11:27;100301.94;;;30.72;77.46
74524;BME280;63074;44.696;10.358;2023-06-22T04:13:53;100284.38;;;30.30;79.02
74524;BME280;63074;44.696;10.358;2023-06-22T04:18:49;100283.06;;;30.23;78.62
74524;BME280;63074;44.696;10.358;2023-06-22T04:21:15;100294.97;;;30.43;78.31
74524;BME280;63074;44.696;10.358;2023-06-22T04:23:41;100288.34;;;30.13;78.79
74524;BME280;63074;44.696;10.358;2023-06-22T04:26:09;100279.41;;;30.39;78.76
74524;BME280;63074;44.696;10.358;2023-06-22T04:28:35;100284.31;;;30.26;77.37
74524;BME280;63074;44.696;10.358;2023-06-22T04:31:04;100295.97;;;30.70;75.97
74524;BME280;63074;44.696;10.358;2023-06-22T04:33:31;100292.91;;;30.40;76.72
74524;BME280;63074;44.696;10.358;2023-06-22T04:35:58;100291.38;;;30.59;75.69
74524;BME280;63074;44.696;10.358;2023-06-22T04:38:26;100289.81;;;30.61;74.85
74524;BME280;63074;44.696;10.358;2023-06-22T04:40:52;100294.16;;;30.78;74.98
74524;BME280;63074;44.696;10.358;2023-06-22T04:43:19;100303.03;;;30.68;75.05
74524;BME280;63074;44.696;10.358;2023-06-22T04:45:45;100287.53;;;30.47;75.59
74524;BME280;63074;44.696;10.358;2023-06-22T04:48:11;100285.97;;;30.85;73.74
74524;BME280;63074;44.696;10.358;2023-06-22T04:50:42;100281.78;;;30.95;72.83
74524;BME280;63074;44.696;10.358;2023-06-22T04:53:08;100295.38;;;30.80;74.05
74524;BME280;63074;44.696;10.358;2023-06-22T04:55:39;100298.78;;;30.93;72.89
74524;BME280;63074;44.696;10.358;2023-06-22T04:58:07;100302.41;;;30.74;73.51
74524;BME280;63074;44.696;10.358;2023-06-22T05:00:34;100305.75;;;30.64;73.50
74524;BME280;63074;44.696;10.358;2023-06-22T05:03:02;100305.97;;;30.75;72.44
74524;BME280;63074;44.696;10.358;2023-06-22T05:05:29;100305.41;;;30.50;72.61
74524;BME280;63074;44.696;10.358;2023-06-22T05:07:57;100293.56;;;30.88;71.99
74524;BME280;63074;44.696;10.358;2023-06-22T05:10:26;100307.56;;;30.76;72.83
74524;BME280;63074;44.696;10.358;2023-06-22T05:12:52;100297.91;;;31.08;71.89
74524;BME280;63074;44.696;10.358;2023-06-22T05:15:18;100298.41;;;31.33;71.67
74524;BME280;63074;44.696;10.358;2023-06-22T05:17:45;100303.03;;;31.06;72.43
74524;BME280;63074;44.696;10.358;2023-06-22T05:20:12;100299.44;;;31.48;70.80
74524;BME280;63074;44.696;10.358;2023-06-22T05:22:40;100302.78;;;31.57;70.63
74524;BME280;63074;44.696;10.358;2023-06-22T05:25:09;100324.81;;;30.50;73.53
74524;BME280;63074;44.696;10.358;2023-06-22T05:27:36;100296.50;;;31.37;72.47
74524;BME280;63074;44.696;10.358;2023-06-22T05:30:06;100302.53;;;31.01;74.43
74524;BME280;63074;44.696;10.358;2023-06-22T05:32:33;100285.38;;;31.60;72.54
74524;BME280;63074;44.696;10.358;2023-06-22T05:34:59;100290.38;;;31.97;71.58
74524;BME280;63074;44.696;10.358;2023-06-22T05:37:26;100319.22;;;31.43;72.25
74524;BME280;63074;44.696;10.358;2023-06-22T05:39:52;100309.44;;;31.72;71.39
74524;BME280;63074;44.696;10.358;2023-06-22T05:44:46;100310.38;;;31.37;72.48
74524;BME280;63074;44.696;10.358;2023-06-22T05:47:13;100319.41;;;30.73;73.24
74524;BME280;63074;44.696;10.358;2023-06-22T05:49:39;100314.44;;;31.01;72.55
74524;BME280;63074;44.696;10.358;2023-06-22T05:52:05;100311.63;;;31.63;71.08
74524;BME280;63074;44.696;10.358;2023-06-22T05:54:32;100328.66;;;31.00;73.52
74524;BME280;63074;44.696;10.358;2023-06-22T05:56:58;100322.69;;;30.98;73.07
74524;BME280;63074;44.696;10.358;2023-06-22T05:59:24;100311.44;;;31.10;72.77
74524;BME280;63074;44.696;10.358;2023-06-22T06:01:50;100304.09;;;31.40;72.19
74524;BME280;63074;44.696;10.358;2023-06-22T06:06:46;100290.31;;;31.93;70.07
74524;BME280;63074;44.696;10.358;2023-06-22T06:09:15;100316.75;;;31.83;69.74
74524;BME280;63074;44.696;10.358;2023-06-22T06:11:41;100304.16;;;32.16;68.40
74524;BME280;63074;44.696;10.358;2023-06-22T06:14:08;100305.34;;;32.15;68.96
74524;BME280;63074;44.696;10.358;2023-06-22T06:16:34;100310.66;;;32.24;68.76
74524;BME280;63074;44.696;10.358;2023-06-22T06:19:00;100285.81;;;32.68;66.99
74524;BME280;63074;44.696;10.358;2023-06-22T06:21:27;100315.38;;;31.97;68.24
74524;BME280;63074;44.696;10.358;2023-06-22T06:23:53;100310.34;;;32.29;68.30
74524;BME280;63074;44.696;10.358;2023-06-22T06:26:19;100313.84;;;32.52;67.84
74524;BME280;63074;44.696;10.358;2023-06-22T06:28:46;100318.16;;;32.49;69.09
74524;BME280;63074;44.696;10.358;2023-06-22T06:31:12;100299.47;;;33.47;67.29
74524;BME280;63074;44.696;10.358;2023-06-22T06:33:43;100304.50;;;33.34;67.33
74524;BME280;63074;44.696;10.358;2023-06-22T06:36:09;100307.91;;;33.58;66.73
74524;BME280;63074;44.696;10.358;2023-06-22T06:38:35;100317.56;;;33.27;66.87
74524;BME280;63074;44.696;10.358;2023-06-22T06:41:01;100311.63;;;33.32;65.27
74524;BME280;63074;44.696;10.358;2023-06-22T06:43:27;100295.91;;;33.98;63.16
74524;BME280;63074;44.696;10.358;2023-06-22T06:45:53;100303.16;;;33.62;62.81
74524;BME280;63074;44.696;10.358;2023-06-22T06:50:46;100298.16;;;33.81;61.40
74524;BME280;63074;44.696;10.358;2023-06-22T06:53:12;100274.53;;;34.16;59.36
74524;BME280;63074;44.696;10.358;2023-06-22T06:55:38;100270.78;;;34.67;57.05
74524;BME280;63074;44.696;10.358;2023-06-22T06:58:04;100264.91;;;34.82;56.62
74524;BME280;63074;44.696;10.358;2023-06-22T07:00:33;100248.59;;;35.02;54.21
74524;BME280;63074;44.696;10.358;2023-06-22T07:03:01;100242.66;;;35.14;53.21
74524;BME280;63074;44.696;10.358;2023-06-22T07:05:27;100252.63;;;35.15;53.71
74524;BME280;63074;44.696;10.358;2023-06-22T07:07:54;100268.97;;;35.24;54.06
74524;BME280;63074;44.696;10.358;2023-06-22T07:12:46;100294.16;;;35.35;55.55
74524;BME280;63074;44.696;10.358;2023-06-22T07:15:13;100328.22;;;34.71;57.68
74524;BME280;63074;44.696;10.358;2023-06-22T07:17:39;100308.06;;;35.10;55.57
74524;BME280;63074;44.696;10.358;2023-06-22T07:20:07;100380.38;;;33.61;61.21
74524;BME280;63074;44.696;10.358;2023-06-22T07:22:42;100341.41;;;34.74;57.77
74524;BME280;63074;44.696;10.358;2023-06-22T07:25:08;100350.63;;;34.20;57.68
74524;BME280;63074;44.696;10.358;2023-06-22T07:30:24;100337.78;;;34.67;56.10
74524;BME280;63074;44.696;10.358;2023-06-22T07:32:51;100309.47;;;34.68;53.37
74524;BME280;63074;44.696;10.358;2023-06-22T07:35:17;100315.22;;;35.04;53.10
74524;BME280;63074;44.696;10.358;2023-06-22T07:37:43;100287.19;;;34.75;51.36
74524;BME280;63074;44.696;10.358;2023-06-22T07:40:10;100304.53;;;35.31;51.84
74524;BME280;63074;44.696;10.358;2023-06-22T07:42:36;100325.25;;;35.26;52.84
74524;BME280;63074;44.696;10.358;2023-06-22T07:45:03;100319.34;;;35.60;51.83
74524;BME280;63074;44.696;10.358;2023-06-22T07:47:30;100321.13;;;34.81;53.27
74524;BME280;63074;44.696;10.358;2023-06-22T07:49:58;100336.03;;;33.86;54.79
74524;BME280;63074;44.696;10.358;2023-06-22T07:52:27;100349.38;;;34.07;55.28
74524;BME280;63074;44.696;10.358;2023-06-22T07:54:54;100300.91;;;35.12;51.36
74524;BME280;63074;44.696;10.358;2023-06-22T07:59:46;100326.03;;;33.81;54.09
74524;BME280;63074;44.696;10.358;2023-06-22T08:02:13;100365.34;;;32.99;57.35
74524;BME280;63074;44.696;10.358;2023-06-22T08:04:39;100400.13;;;32.82;61.74
74524;BME280;63074;44.696;10.358;2023-06-22T08:07:07;100382.44;;;32.71;59.58
74524;BME280;63074;44.696;10.358;2023-06-22T08:09:33;100373.13;;;33.49;59.64
74524;BME280;63074;44.696;10.358;2023-06-22T08:12:00;100410.81;;;33.77;63.75
74524;BME280;63074;44.696;10.358;2023-06-22T08:14:26;100325.91;;;34.80;56.17
74524;BME280;63074;44.696;10.358;2023-06-22T08:16:53;100348.53;;;34.61;56.33
74524;BME280;63074;44.696;10.358;2023-06-22T08:19:19;100418.69;;;32.74;61.62
74524;BME280;63074;44.696;10.358;2023-06-22T08:21:45;100365.72;;;34.12;57.74
74524;BME280;63074;44.696;10.358;2023-06-22T08:24:11;100344.72;;;34.29;56.35
74524;BME280;63074;44.696;10.358;2023-06-22T08:26:38;100356.47;;;34.01;56.76
74524;BME280;63074;44.696;10.358;2023-06-22T08:29:05;100382.28;;;32.86;59.70
74524;BME280;63074;44.696;10.358;2023-06-22T08:31:32;100373.28;;;32.70;59.43
74524;BME280;63074;44.696;10.358;2023-06-22T08:34:00;100340.00;;;33.07;56.79
74524;BME280;63074;44.696;10.358;2023-06-22T08:36:26;100319.28;;;33.82;56.42
74524;BME280;63074;44.696;10.358;2023-06-22T08:38:58;100325.22;;;33.37;57.83
74524;BME280;63074;44.696;10.358;2023-06-22T08:41:27;100291.13;;;33.95;55.43
74524;BME280;63074;44.696;10.358;2023-06-22T08:43:53;100313.41;;;33.50;56.31
74524;BME280;63074;44.696;10.358;2023-06-22T08:48:45;100259.75;;;34.84;50.49
74524;BME280;63074;44.696;10.358;2023-06-22T08:51:12;100280.16;;;35.13;51.81
74524;BME280;63074;44.696;10.358;2023-06-22T08:53:40;100305.66;;;35.08;52.81
74524;BME280;63074;44.696;10.358;2023-06-22T08:56:06;100332.59;;;34.69;53.74
74524;BME280;63074;44.696;10.358;2023-06-22T08:58:32;100296.97;;;35.60;51.47
74524;BME280;63074;44.696;10.358;2023-06-22T09:00:58;100276.22;;;36.00;48.86
74524;BME280;63074;44.696;10.358;2023-06-22T09:03:27;100283.78;;;35.32;50.16
74524;BME280;63074;44.696;10.358;2023-06-22T09:05:53;100288.13;;;35.26;48.23
74524;BME280;63074;44.696;10.358;2023-06-22T09:10:46;100287.81;;;35.98;46.96
74524;BME280;63074;44.696;10.358;2023-06-22T09:13:12;100288.59;;;35.49;47.57
74524;BME280;63074;44.696;10.358;2023-06-22T09:15:38;100292.59;;;35.48;48.87
74524;BME280;63074;44.696;10.358;2023-06-22T09:18:05;100318.50;;;34.33;50.59
74524;BME280;63074;44.696;10.358;2023-06-22T09:20:31;100277.03;;;36.00;47.38
74524;BME280;63074;44.696;10.358;2023-06-22T09:22:57;100281.75;;;35.25;48.70
74524;BME280;63074;44.696;10.358;2023-06-22T09:25:24;100251.44;;;36.09;46.86
74524;BME280;63074;44.696;10.358;2023-06-22T09:27:50;100298.59;;;35.50;50.79
74524;BME280;63074;44.696;10.358;2023-06-22T09:30:16;100271.38;;;36.32;48.59
74524;BME280;63074;44.696;10.358;2023-06-22T09:32:42;100269.59;;;36.70;48.64
74524;BME280;63074;44.696;10.358;2023-06-22T09:35:09;100306.06;;;35.10;49.78
74524;BME280;63074;44.696;10.358;2023-06-22T09:37:36;100274.19;;;36.32;48.05
74524;BME280;63074;44.696;10.358;2023-06-22T09:40:03;100260.66;;;37.04;46.96
74524;BME280;63074;44.696;10.358;2023-06-22T09:42:34;100238.50;;;37.27;45.67
74524;BME280;63074;44.696;10.358;2023-06-22T09:45:01;100213.16;;;37.86;43.59
74524;BME280;63074;44.696;10.358;2023-06-22T09:47:28;100215.47;;;36.98;45.03
74524;BME280;63074;44.696;10.358;2023-06-22T09:49:54;100188.72;;;37.87;43.54
74524;BME280;63074;44.696;10.358;2023-06-22T09:54:47;100236.75;;;36.89;45.01
74524;BME280;63074;44.696;10.358;2023-06-22T09:57:13;100233.38;;;37.15;44.70
74524;BME280;63074;44.696;10.358;2023-06-22T09:59:40;100230.75;;;37.90;43.61
74524;BME280;63074;44.696;10.358;2023-06-22T10:02:07;100245.81;;;37.66;44.23
74524;BME280;63074;44.696;10.358;2023-06-22T10:04:34;100233.78;;;38.06;42.59
74524;BME280;63074;44.696;10.358;2023-06-22T10:07:01;100233.81;;;37.62;42.27
74524;BME280;63074;44.696;10.358;2023-06-22T10:09:28;100233.81;;;37.58;42.37
74524;BME280;63074;44.696;10.358;2023-06-22T10:11:54;100212.38;;;38.57;41.52
74524;BME280;63074;44.696;10.358;2023-06-22T10:16:47;100256.56;;;37.74;46.02
74524;BME280;63074;44.696;10.358;2023-06-22T10:19:14;100244.81;;;37.87;44.95
74524;BME280;63074;44.696;10.358;2023-06-22T10:21:40;100311.34;;;36.11;49.29
74524;BME280;63074;44.696;10.358;2023-06-22T10:24:06;100324.97;;;36.09;51.26
74524;BME280;63074;44.696;10.358;2023-06-22T10:26:33;100275.19;;;36.81;48.19
74524;BME280;63074;44.696;10.358;2023-06-22T10:29:00;100273.66;;;37.35;46.92
74524;BME280;63074;44.696;10.358;2023-06-22T10:31:26;100269.66;;;37.84;46.84
74524;BME280;63074;44.696;10.358;2023-06-22T10:33:54;100265.47;;;37.59;46.12
74524;BME280;63074;44.696;10.358;2023-06-22T10:38:47;100259.56;;;37.46;46.16
74524;BME280;63074;44.696;10.358;2023-06-22T10:41:14;100236.91;;;38.15;44.64
74524;BME280;63074;44.696;10.358;2023-06-22T10:43:40;100264.06;;;37.36;46.73
74524;BME280;63074;44.696;10.358;2023-06-22T10:46:07;100222.66;;;37.55;44.47
74524;BME280;63074;44.696;10.358;2023-06-22T10:48:33;100223.63;;;37.82;44.07
74524;BME280;63074;44.696;10.358;2023-06-22T10:50:59;100229.66;;;38.18;44.50
74524;BME280;63074;44.696;10.358;2023-06-22T10:53:25;100204.75;;;39.11;41.64
74524;BME280;63074;44.696;10.358;2023-06-22T10:55:52;100188.94;;;39.88;41.19
74524;BME280;63074;44.696;10.358;2023-06-22T10:58:19;100196.13;;;39.49;41.52
74524;BME280;63074;44.696;10.358;2023-06-22T11:00:45;100184.25;;;39.14;41.35
74524;BME280;63074;44.696;10.358;2023-06-22T11:03:12;100195.59;;;39.77;41.53
74524;BME280;63074;44.696;10.358;2023-06-22T11:05:40;100174.13;;;40.27;40.16
74524;BME280;63074;44.696;10.358;2023-06-22T11:08:06;100191.19;;;39.30;41.62
74524;BME280;63074;44.696;10.358;2023-06-22T11:10:32;100191.28;;;39.49;41.21
74524;BME280;63074;44.696;10.358;2023-06-22T11:12:58;100154.06;;;40.25;38.73
74524;BME280;63074;44.696;10.358;2023-06-22T11:15:25;100153.13;;;39.72;38.65
74524;BME280;63074;44.696;10.358;2023-06-22T11:17:51;100134.28;;;40.28;38.75
74524;BME280;63074;44.696;10.358;2023-06-22T11:20:17;100117.13;;;40.59;38.07
74524;BME280;63074;44.696;10.358;2023-06-22T11:22:44;100121.34;;;40.67;37.71
74524;BME280;63074;44.696;10.358;2023-06-22T11:25:10;100123.81;;;40.65;38.77
74524;BME280;63074;44.696;10.358;2023-06-22T11:27:38;100120.50;;;40.70;37.87
74524;BME280;63074;44.696;10.358;2023-06-22T11:30:04;100111.69;;;40.84;37.42
74524;BME280;63074;44.696;10.358;2023-06-22T11:32:31;100094.75;;;41.33;37.15
74524;BME280;63074;44.696;10.358;2023-06-22T11:34:57;100125.28;;;41.22;39.10
74524;BME280;63074;44.696;10.358;2023-06-22T11:37:23;100107.56;;;41.21;37.64
74524;BME280;63074;44.696;10.358;2023-06-22T11:39:49;100113.06;;;41.41;37.70
74524;BME280;63074;44.696;10.358;2023-06-22T11:42:15;100126.78;;;41.55;37.98
74524;BME280;63074;44.696;10.358;2023-06-22T11:44:42;100110.00;;;41.64;37.67
74524;BME280;63074;44.696;10.358;2023-06-22T11:47:10;100098.38;;;41.01;37.30
74524;BME280;63074;44.696;10.358;2023-06-22T11:49:36;100097.34;;;41.56;37.06
74524;BME280;63074;44.696;10.358;2023-06-22T11:52:02;100103.56;;;41.35;37.53
74524;BME280;63074;44.696;10.358;2023-06-22T11:54:28;100110.72;;;41.68;38.39
74524;BME280;63074;44.696;10.358;2023-06-22T11:56:55;100098.25;;;41.37;36.78
74524;BME280;63074;44.696;10.358;2023-06-22T12:01:47;100098.53;;;41.42;37.01
74524;BME280;63074;44.696;10.358;2023-06-22T12:04:15;100099.56;;;40.15;38.90
74524;BME280;63074;44.696;10.358;2023-06-22T12:06:41;100129.06;;;40.10;39.82
74524;BME280;63074;44.696;10.358;2023-06-22T12:09:09;100105.00;;;41.56;38.09
74524;BME280;63074;44.696;10.358;2023-06-22T12:11:35;100098.38;;;41.62;38.44
74524;BME280;63074;44.696;10.358;2023-06-22T12:14:01;100107.06;;;41.39;38.33
74524;BME280;63074;44.696;10.358;2023-06-22T12:16:28;100119.63;;;41.22;39.34
74524;BME280;63074;44.696;10.358;2023-06-22T12:18:55;100065.91;;;42.63;35.64
74524;BME280;63074;44.696;10.358;2023-06-22T12:23:47;100067.34;;;42.93;36.15
74524;BME280;63074;44.696;10.358;2023-06-22T12:26:13;100070.31;;;42.64;36.09
74524;BME280;63074;44.696;10.358;2023-06-22T12:28:39;100078.44;;;42.74;36.10
74524;BME280;63074;44.696;10.358;2023-06-22T12:31:05;100072.44;;;42.98;35.67
74524;BME280;63074;44.696;10.358;2023-06-22T12:33:32;100059.66;;;42.80;35.12
74524;BME280;63074;44.696;10.358;2023-06-22T12:35:58;100065.13;;;42.24;35.68
74524;BME280;63074;44.696;10.358;2023-06-22T12:38:24;100065.69;;;42.70;34.72
74524;BME280;63074;44.696;10.358;2023-06-22T12:40:52;100070.66;;;42.15;35.52
74524;BME280;63074;44.696;10.358;2023-06-22T12:43:18;100079.09;;;42.78;35.90
74524;BME280;63074;44.696;10.358;2023-06-22T12:45:44;100072.50;;;43.07;35.64
74524;BME280;63074;44.696;10.358;2023-06-22T12:48:10;100077.66;;;41.69;35.57
74524;BME280;63074;44.696;10.358;2023-06-22T12:50:48;100089.09;;;41.33;36.51
74524;BME280;63074;44.696;10.358;2023-06-22T12:53:14;100089.75;;;41.08;36.45
74524;BME280;63074;44.696;10.358;2023-06-22T12:55:44;100073.00;;;42.17;35.27
74524;BME280;63074;44.696;10.358;2023-06-22T12:58:12;100090.81;;;42.42;36.43
74524;BME280;63074;44.696;10.358;2023-06-22T13:00:38;100091.56;;;42.68;36.73
74524;BME280;63074;44.696;10.358;2023-06-22T13:03:08;100104.69;;;42.62;37.21
74524;BME280;63074;44.696;10.358;2023-06-22T13:05:35;100096.91;;;41.99;37.44
74524;BME280;63074;44.696;10.358;2023-06-22T13:08:02;100089.19;;;42.67;36.25
74524;BME280;63074;44.696;10.358;2023-06-22T13:10:31;100123.72;;;42.20;38.48
74524;BME280;63074;44.696;10.358;2023-06-22T13:13:01;100106.00;;;42.32;36.91
74524;BME280;63074;44.696;10.358;2023-06-22T13:15:28;100086.72;;;41.89;36.14
74524;BME280;63074;44.696;10.358;2023-06-22T13:17:56;100106.41;;;40.86;37.88
74524;BME280;63074;44.696;10.358;2023-06-22T13:22:48;100112.59;;;41.59;38.49
74524;BME280;63074;44.696;10.358;2023-06-22T13:25:14;100110.66;;;41.97;37.36
74524;BME280;63074;44.696;10.358;2023-06-22T13:27:48;100103.69;;;41.60;38.15
74524;BME280;63074;44.696;10.358;2023-06-22T13:30:17;100113.03;;;41.57;38.23
74524;BME280;63074;44.696;10.358;2023-06-22T13:32:43;100126.84;;;40.90;39.14
74524;BME280;63074;44.696;10.358;2023-06-22T13:35:10;100122.34;;;41.09;38.26
74524;BME280;63074;44.696;10.358;2023-06-22T13:37:37;100108.41;;;41.34;37.39
74524;BME280;63074;44.696;10.358;2023-06-22T13:40:07;100104.09;;;41.30;37.74